Churchill, Virginia
Current Conditions -  °F | °C
As of 4:01 AM on Thursday 27 Nov 2014 (Local Time) from KRIC Reporting Station
Overcast Overcast  
Wind Chill: 39°   Ceiling: 5500
Heat Index: 39°   Visibility: 10mi
Dew Point: 37°   Wind: 0mph
Humidity: 93%   Direction: NA
Pressure: 30.04"   Gusts: NA
Location:  37.556°N, 77.3779°W
Report Text: KRIC 270901Z 00000KT 10SM FEW008 BKN055 OVC070 04/03 A3004 RMK AO2
Loading
Personal Weather Stations






























Interactive Weather Map New forecast layout! Learn more

10-Day Weather Forecast

Advertisements
Track Severe Weather on mobile